createdAt,value
2023-04-16T00:00:33.869Z,5.72
2023-04-16T00:03:35.792Z,5.81
2023-04-16T00:06:37.622Z,5.84
2023-04-16T00:09:39.158Z,5.74
2023-04-16T00:12:41.153Z,5.65
2023-04-16T00:15:42.769Z,5.70
2023-04-16T00:18:44.402Z,5.59
2023-04-16T00:21:45.996Z,5.82
2023-04-16T00:24:47.589Z,5.75
2023-04-16T00:27:49.166Z,5.70
2023-04-16T00:30:51.153Z,5.57
2023-04-16T00:33:53.504Z,5.38
2023-04-16T00:36:55.082Z,5.48
2023-04-16T00:39:56.653Z,5.46
2023-04-16T00:42:58.196Z,5.43
2023-04-16T00:45:59.900Z,5.61
2023-04-16T00:49:03.033Z,5.61
2023-04-16T00:52:04.648Z,5.64
2023-04-16T00:55:08.120Z,5.57
2023-04-16T00:58:09.724Z,5.50
2023-04-16T01:01:11.502Z,5.50
2023-04-16T01:04:13.206Z,5.39
2023-04-16T01:07:14.918Z,5.35
2023-04-16T01:10:16.494Z,5.42
2023-04-16T01:13:18.119Z,5.41
2023-04-16T01:16:19.729Z,5.25
2023-04-16T01:19:21.374Z,5.17
2023-04-16T01:22:22.938Z,5.19
2023-04-16T01:25:24.524Z,5.13
2023-04-16T01:28:26.231Z,5.20
2023-04-16T01:31:27.863Z,5.27
2023-04-16T01:34:29.518Z,5.21
2023-04-16T01:37:31.181Z,5.15
2023-04-16T01:40:32.757Z,5.28
2023-04-16T01:43:34.401Z,5.28
2023-04-16T01:46:36.372Z,5.42
2023-04-16T01:49:38.245Z,5.48
2023-04-16T01:52:39.883Z,5.48
2023-04-16T01:55:41.438Z,5.68
2023-04-16T01:58:42.995Z,5.48
2023-04-16T02:01:44.667Z,5.65
2023-04-16T02:04:46.421Z,5.78
2023-04-16T02:07:47.989Z,5.74
2023-04-16T02:10:50.624Z,5.65
2023-04-16T02:13:52.234Z,5.63
2023-04-16T02:16:53.817Z,5.49
2023-04-16T02:19:55.551Z,5.16
2023-04-16T02:22:57.122Z,5.25
2023-04-16T02:25:58.884Z,5.28
2023-04-16T02:29:00.590Z,5.36
2023-04-16T02:32:02.255Z,5.24
2023-04-16T02:35:04.178Z,5.32
2023-04-16T02:38:06.082Z,5.37
2023-04-16T02:41:07.726Z,5.39
2023-04-16T02:44:09.317Z,5.33
2023-04-16T02:47:10.858Z,5.32
2023-04-16T02:50:12.493Z,5.33
2023-04-16T02:53:14.111Z,5.08
2023-04-16T02:56:15.873Z,5.25
2023-04-16T02:59:17.407Z,5.08
2023-04-16T03:02:19.033Z,5.14
2023-04-16T03:05:20.973Z,5.31
2023-04-16T03:08:22.615Z,5.29
2023-04-16T03:11:24.334Z,5.42
2023-04-16T03:14:26.023Z,5.46
2023-04-16T03:17:27.584Z,5.40
2023-04-16T03:20:29.149Z,5.37
2023-04-16T03:23:30.837Z,5.62
2023-04-16T03:26:32.399Z,5.58
2023-04-16T03:29:36.913Z,5.57
2023-04-16T03:32:38.853Z,5.43
2023-04-16T03:35:40.560Z,5.53
2023-04-16T03:38:42.146Z,5.55
2023-04-16T03:41:43.744Z,5.46
2023-04-16T03:44:45.386Z,5.51
2023-04-16T03:47:52.483Z,5.57
2023-04-16T03:50:54.221Z,5.57
2023-04-16T03:53:56.084Z,5.45
2023-04-16T03:56:57.732Z,5.50
2023-04-16T03:59:59.316Z,5.53
2023-04-16T04:03:01.073Z,5.53
2023-04-16T04:06:08.249Z,5.64
2023-04-16T04:09:09.968Z,5.74
2023-04-16T04:12:11.721Z,5.73
2023-04-16T04:15:13.424Z,5.81
2023-04-16T04:18:15.005Z,5.90
2023-04-16T04:21:16.595Z,5.88
2023-04-16T04:24:18.149Z,6.04
2023-04-16T04:27:19.714Z,6.09
2023-04-16T04:30:21.379Z,6.12
2023-04-16T04:33:23.010Z,6.17
2023-04-16T04:36:24.575Z,6.06
2023-04-16T04:39:26.310Z,6.15
2023-04-16T04:42:27.849Z,6.14
2023-04-16T04:45:31.272Z,6.25
2023-04-16T04:48:33.529Z,6.35
2023-04-16T04:51:35.250Z,6.37
2023-04-16T04:54:36.957Z,6.41
2023-04-16T04:57:38.517Z,6.43
2023-04-16T05:00:40.313Z,6.51
2023-04-16T05:03:42.005Z,6.53
2023-04-16T05:06:44.105Z,6.48
2023-04-16T05:09:45.798Z,6.55
2023-04-16T05:12:51.079Z,6.56
2023-04-16T05:15:52.690Z,6.66
2023-04-16T05:18:56.093Z,6.68
2023-04-16T05:21:57.698Z,6.72
2023-04-16T05:24:59.308Z,6.73
2023-04-16T05:28:00.997Z,6.77
2023-04-16T05:31:02.611Z,6.81
2023-04-16T05:34:04.250Z,6.73
2023-04-16T05:37:05.848Z,6.83
2023-04-16T05:40:08.211Z,6.81
2023-04-16T05:43:09.842Z,6.99
2023-04-16T05:46:11.528Z,7.18
2023-04-16T05:49:13.178Z,7.24
2023-04-16T05:52:15.367Z,7.40
2023-04-16T05:55:16.952Z,7.52
2023-04-16T05:58:18.546Z,7.62
2023-04-16T06:01:20.392Z,7.71
2023-04-16T06:04:21.966Z,7.85
2023-04-16T06:07:23.540Z,8.10
2023-04-16T06:10:25.416Z,8.15
2023-04-16T06:13:26.994Z,8.20
2023-04-16T06:16:28.647Z,8.32
2023-04-16T06:19:30.301Z,8.37
2023-04-16T06:22:33.014Z,8.43
2023-04-16T06:25:34.597Z,8.46
2023-04-16T06:28:36.206Z,8.63
2023-04-16T06:31:37.917Z,8.84
2023-04-16T06:34:39.690Z,9.06
2023-04-16T06:37:41.597Z,9.12
2023-04-16T06:40:43.186Z,9.33
2023-04-16T06:43:44.920Z,9.14
2023-04-16T06:46:46.517Z,9.26
2023-04-16T06:49:48.095Z,9.40
2023-04-16T06:52:49.680Z,9.47
2023-04-16T06:55:51.927Z,9.43
2023-04-16T06:58:53.504Z,9.54
2023-04-16T07:01:55.339Z,9.84
2023-04-16T07:04:56.952Z,9.97
2023-04-16T07:07:59.458Z,10.05
2023-04-16T07:11:01.140Z,10.33
2023-04-16T07:14:02.716Z,10.30
2023-04-16T07:17:04.295Z,10.50
2023-04-16T07:20:06.677Z,10.51
2023-04-16T07:23:08.229Z,10.29
2023-04-16T07:26:10.556Z,10.53
2023-04-16T07:29:12.398Z,10.61
2023-04-16T07:32:15.460Z,10.74
2023-04-16T07:35:17.461Z,10.62
2023-04-16T07:38:19.022Z,10.58
2023-04-16T07:41:20.606Z,10.69
2023-04-16T07:44:22.218Z,10.41
2023-04-16T07:47:23.849Z,10.60
2023-04-16T07:50:25.748Z,10.70
2023-04-16T07:53:27.352Z,10.78
2023-04-16T07:56:28.996Z,10.89
2023-04-16T07:59:30.781Z,10.97
2023-04-16T08:02:38.417Z,11.30
2023-04-16T08:05:40.253Z,11.30
2023-04-16T08:08:41.825Z,11.58
2023-04-16T08:11:43.462Z,11.85
2023-04-16T08:14:45.888Z,11.75
2023-04-16T08:17:47.419Z,11.58
2023-04-16T08:20:49.099Z,11.43
2023-04-16T08:23:50.664Z,11.31
2023-04-16T08:26:52.426Z,11.23
2023-04-16T08:29:54.101Z,11.20
2023-04-16T08:32:56.070Z,11.01
2023-04-16T08:35:57.866Z,11.13
2023-04-16T08:38:59.455Z,11.38
2023-04-16T08:42:04.756Z,11.35
2023-04-16T08:45:16.119Z,11.39
2023-04-16T08:48:22.042Z,11.50
2023-04-16T08:51:27.443Z,11.76
2023-04-16T08:54:38.627Z,11.83
2023-04-16T08:57:48.569Z,12.45
2023-04-16T09:00:51.109Z,12.61
2023-04-16T09:03:53.159Z,12.61
2023-04-16T09:06:59.398Z,12.75
2023-04-16T09:10:01.698Z,13.17
2023-04-16T09:13:03.514Z,14.04
2023-04-16T09:16:07.916Z,13.76
2023-04-16T09:19:09.649Z,14.20
2023-04-16T09:22:12.055Z,14.68
2023-04-16T09:25:15.369Z,14.84
2023-04-16T09:28:45.976Z,15.14
2023-04-16T09:32:05.471Z,15.33
2023-04-16T09:35:07.381Z,15.83
2023-04-16T09:38:08.994Z,15.56
2023-04-16T09:41:10.628Z,14.97
2023-04-16T09:44:12.229Z,15.18
2023-04-16T09:47:14.029Z,15.79
2023-04-16T09:50:18.632Z,15.55
2023-04-16T09:53:28.357Z,15.43
2023-04-16T09:56:30.562Z,15.18
2023-04-16T09:59:34.146Z,15.08
2023-04-16T10:02:39.422Z,15.24
2023-04-16T10:05:41.780Z,15.00
2023-04-16T10:08:49.651Z,15.15
2023-04-16T10:11:51.991Z,15.23
2023-04-16T10:14:53.539Z,15.20
2023-04-16T10:17:57.010Z,15.52
2023-04-16T10:20:59.227Z,14.92
2023-04-16T10:24:01.270Z,15.63
2023-04-16T10:27:03.286Z,15.95
2023-04-16T10:30:07.213Z,16.60
2023-04-16T10:33:09.887Z,16.86
2023-04-16T10:36:17.321Z,16.67
2023-04-16T10:39:21.345Z,17.89
2023-04-16T10:42:22.936Z,18.62
2023-04-16T10:45:32.726Z,19.51
2023-04-16T10:48:48.693Z,19.07
2023-04-16T10:51:54.716Z,18.59
2023-04-16T10:54:59.489Z,18.63
2023-04-16T10:58:01.099Z,18.05
2023-04-16T11:01:11.283Z,17.76
2023-04-16T11:04:22.341Z,17.71
2023-04-16T11:07:34.925Z,17.51
2023-04-16T11:10:39.496Z,17.96
2023-04-16T11:13:45.061Z,17.83
2023-04-16T11:16:46.690Z,17.71
2023-04-16T11:19:48.556Z,17.83
2023-04-16T11:22:55.004Z,17.89
2023-04-16T11:25:58.581Z,17.65
2023-04-16T11:29:00.445Z,17.53
2023-04-16T11:32:02.066Z,17.46
2023-04-16T11:35:13.921Z,17.82
2023-04-16T11:38:18.189Z,17.73
2023-04-16T11:41:21.922Z,17.87
2023-04-16T11:44:28.102Z,18.05
2023-04-16T11:47:31.817Z,17.87
2023-04-16T11:50:33.700Z,17.94
2023-04-16T11:53:36.823Z,18.59
2023-04-16T11:56:38.382Z,19.14
2023-04-16T12:00:02.745Z,19.85
2023-04-16T12:03:05.637Z,19.59
2023-04-16T12:06:09.109Z,19.21
2023-04-16T12:09:26.310Z,18.84
2023-04-16T12:12:31.449Z,18.73
2023-04-16T12:15:50.931Z,18.66
2023-04-16T12:19:00.496Z,18.34
2023-04-16T12:22:02.125Z,18.88
2023-04-16T12:25:24.649Z,18.88
2023-04-16T12:28:31.679Z,19.15
2023-04-16T12:31:39.339Z,19.27
2023-04-16T12:34:51.561Z,20.78
2023-04-16T12:37:53.125Z,21.48
2023-04-16T12:40:57.097Z,21.54
2023-04-16T12:44:07.149Z,21.20
2023-04-16T12:47:08.790Z,20.63
2023-04-16T12:50:10.848Z,20.39
2023-04-16T12:53:12.467Z,20.16
2023-04-16T12:56:14.089Z,20.09
2023-04-16T12:59:17.381Z,19.96
2023-04-16T13:02:19.062Z,19.87
2023-04-16T13:05:21.061Z,19.87
2023-04-16T13:08:22.751Z,19.04
2023-04-16T13:11:24.411Z,19.81
2023-04-16T13:14:26.313Z,19.49
2023-04-16T13:17:27.953Z,19.56
2023-04-16T13:20:29.597Z,18.73
2023-04-16T13:23:31.550Z,18.25
2023-04-16T13:26:33.138Z,17.83
2023-04-16T13:29:36.731Z,17.74
2023-04-16T13:32:38.307Z,17.50
2023-04-16T13:35:39.901Z,17.01
2023-04-16T13:38:42.262Z,16.98
2023-04-16T13:41:43.845Z,16.91
2023-04-16T13:44:48.871Z,16.60
2023-04-16T13:47:50.549Z,16.65
2023-04-16T13:50:52.250Z,16.46
2023-04-16T13:53:55.960Z,16.30
2023-04-16T13:56:57.574Z,16.37
2023-04-16T14:00:11.867Z,16.36
2023-04-16T14:03:14.849Z,16.47
2023-04-16T14:06:18.138Z,16.36
2023-04-16T14:09:19.697Z,16.34
2023-04-16T14:12:21.373Z,16.18
2023-04-16T14:15:23.104Z,16.24
2023-04-16T14:18:24.665Z,16.38
2023-04-16T14:21:27.119Z,16.67
2023-04-16T14:24:29.246Z,17.01
2023-04-16T14:27:31.586Z,17.11
2023-04-16T14:30:33.178Z,17.06
2023-04-16T14:33:34.778Z,17.57
2023-04-16T14:36:37.004Z,17.51
2023-04-16T14:39:39.314Z,17.36
2023-04-16T14:42:41.005Z,17.25
2023-04-16T14:45:42.725Z,17.09
2023-04-16T14:48:44.352Z,16.87
2023-04-16T14:51:46.728Z,17.07
2023-04-16T14:54:48.295Z,17.23
2023-04-16T14:57:49.885Z,16.92
2023-04-16T15:00:51.547Z,16.92
2023-04-16T15:03:56.324Z,16.75
2023-04-16T15:07:00.835Z,16.93
2023-04-16T15:10:02.974Z,16.74
2023-04-16T15:13:04.586Z,16.96
2023-04-16T15:16:06.232Z,16.83
2023-04-16T15:19:07.955Z,16.95
2023-04-16T15:22:09.601Z,16.93
2023-04-16T15:25:11.285Z,16.82
2023-04-16T15:28:12.866Z,16.96
2023-04-16T15:31:14.503Z,16.61
2023-04-16T15:34:16.090Z,16.74
2023-04-16T15:37:17.679Z,16.72
2023-04-16T15:40:20.575Z,16.78
2023-04-16T15:43:22.215Z,16.83
2023-04-16T15:46:23.847Z,16.84
2023-04-16T15:49:25.660Z,16.86
2023-04-16T15:52:27.958Z,16.51
2023-04-16T15:55:29.633Z,16.54
2023-04-16T15:58:31.370Z,16.36
2023-04-16T16:01:33.049Z,16.42
2023-04-16T16:04:34.891Z,16.35
2023-04-16T16:07:36.923Z,16.29
2023-04-16T16:10:39.055Z,16.12
2023-04-16T16:13:41.729Z,16.38
2023-04-16T16:16:43.303Z,16.40
2023-04-16T16:19:46.481Z,16.29
2023-04-16T16:22:48.404Z,16.43
2023-04-16T16:25:51.483Z,16.31
2023-04-16T16:28:53.307Z,16.34
2023-04-16T16:31:54.926Z,16.23
2023-04-16T16:34:57.713Z,16.04
2023-04-16T16:37:59.484Z,15.92
2023-04-16T16:41:01.158Z,15.88
2023-04-16T16:44:02.755Z,15.83
2023-04-16T16:47:04.521Z,15.56
2023-04-16T16:50:06.859Z,15.64
2023-04-16T16:53:08.534Z,15.57
2023-04-16T16:56:10.145Z,15.45
2023-04-16T16:59:11.940Z,15.43
2023-04-16T17:02:15.104Z,15.38
2023-04-16T17:05:18.597Z,15.29
2023-04-16T17:08:20.210Z,15.17
2023-04-16T17:11:21.803Z,15.12
2023-04-16T17:14:24.430Z,14.88
2023-04-16T17:17:27.133Z,14.71
2023-04-16T17:20:28.796Z,14.52
2023-04-16T17:23:30.473Z,14.42
2023-04-16T17:26:32.109Z,14.27
2023-04-16T17:29:33.737Z,14.18
2023-04-16T17:32:35.819Z,13.95
2023-04-16T17:35:39.989Z,13.82
2023-04-16T17:38:44.285Z,13.90
2023-04-16T17:41:46.560Z,13.86
2023-04-16T17:44:48.154Z,13.83
2023-04-16T17:47:49.792Z,13.81
2023-04-16T17:50:51.386Z,13.70
2023-04-16T17:53:53.588Z,13.67
2023-04-16T17:56:55.202Z,13.70
2023-04-16T17:59:57.046Z,13.63
2023-04-16T18:02:59.782Z,13.48
2023-04-16T18:06:01.573Z,13.50
2023-04-16T18:09:05.787Z,13.47
2023-04-16T18:12:07.949Z,13.38
2023-04-16T18:15:10.379Z,13.27
2023-04-16T18:18:11.974Z,13.32
2023-04-16T18:21:13.628Z,13.39
2023-04-16T18:24:15.908Z,13.41
2023-04-16T18:27:17.492Z,13.34
2023-04-16T18:30:25.201Z,13.16
2023-04-16T18:33:49.988Z,13.12
2023-04-16T18:36:49.658Z,13.19
2023-04-16T18:39:51.307Z,13.14
2023-04-16T18:42:52.897Z,13.07
2023-04-16T18:45:54.567Z,12.95
2023-04-16T18:48:56.286Z,12.92
2023-04-16T18:51:57.881Z,12.94
2023-04-16T18:54:59.471Z,12.83
2023-04-16T18:58:01.088Z,12.86
2023-04-16T19:01:03.026Z,12.66
2023-04-16T19:04:04.838Z,12.65
2023-04-16T19:07:06.438Z,12.67
2023-04-16T19:10:08.645Z,12.60
2023-04-16T19:13:10.258Z,12.56
2023-04-16T19:16:12.351Z,12.51
2023-04-16T19:19:14.098Z,12.47
2023-04-16T19:22:15.663Z,12.39
2023-04-16T19:25:17.332Z,12.34
2023-04-16T19:28:19.101Z,12.23
2023-04-16T19:31:20.966Z,12.22
2023-04-16T19:34:22.554Z,12.18
2023-04-16T19:37:24.122Z,12.09
2023-04-16T19:40:25.923Z,11.91
2023-04-16T19:43:30.752Z,12.02
2023-04-16T19:46:32.740Z,12.00
2023-04-16T19:49:34.595Z,12.07
2023-04-16T19:52:38.869Z,12.06
2023-04-16T19:55:41.618Z,12.17
2023-04-16T19:58:43.244Z,12.16
2023-04-16T20:01:45.013Z,12.04
2023-04-16T20:04:48.490Z,12.13
2023-04-16T20:07:52.496Z,12.14
2023-04-16T20:10:54.555Z,12.13
2023-04-16T20:14:00.156Z,12.05
2023-04-16T20:17:01.983Z,12.07
2023-04-16T20:20:07.325Z,12.05
2023-04-16T20:23:08.858Z,12.00
2023-04-16T20:26:13.465Z,11.99
2023-04-16T20:29:15.167Z,11.86
2023-04-16T20:32:16.798Z,12.06
2023-04-16T20:35:18.358Z,11.95
2023-04-16T20:38:23.934Z,12.02
2023-04-16T20:41:25.615Z,11.93
2023-04-16T20:44:33.304Z,11.99
2023-04-16T20:47:35.029Z,11.93
2023-04-16T20:50:36.928Z,11.94
2023-04-16T20:53:38.504Z,11.91
2023-04-16T20:56:40.162Z,11.87
2023-04-16T20:59:41.743Z,11.94
2023-04-16T21:02:43.817Z,11.91
2023-04-16T21:05:50.066Z,11.94
2023-04-16T21:08:51.827Z,11.91
2023-04-16T21:11:56.603Z,11.84
2023-04-16T21:14:58.286Z,11.84
2023-04-16T21:17:59.896Z,11.72
2023-04-16T21:21:01.651Z,11.81
2023-04-16T21:24:03.338Z,11.69
2023-04-16T21:27:04.930Z,11.78
2023-04-16T21:30:07.287Z,11.71
2023-04-16T21:33:08.929Z,11.63
2023-04-16T21:36:11.477Z,11.86
2023-04-16T21:39:14.209Z,11.74
2023-04-16T21:42:16.040Z,11.79
2023-04-16T21:45:17.636Z,11.78
2023-04-16T21:48:20.041Z,11.55
2023-04-16T21:51:28.973Z,11.72
2023-04-16T21:54:30.657Z,11.64
2023-04-16T21:57:32.334Z,11.55
2023-04-16T22:00:34.193Z,11.74
2023-04-16T22:03:40.051Z,11.64
2023-04-16T22:06:43.076Z,11.62
2023-04-16T22:09:44.605Z,11.61
2023-04-16T22:12:46.620Z,11.50
2023-04-16T22:15:48.306Z,11.33
2023-04-16T22:18:49.973Z,11.39
2023-04-16T22:21:51.506Z,11.34
2023-04-16T22:24:53.469Z,11.39
2023-04-16T22:27:55.568Z,11.14
2023-04-16T22:30:57.410Z,11.30
2023-04-16T22:33:59.819Z,11.30
2023-04-16T22:37:03.131Z,11.25
2023-04-16T22:40:08.403Z,11.14
2023-04-16T22:43:09.938Z,11.11
2023-04-16T22:46:11.895Z,11.05
2023-04-16T22:49:13.979Z,10.96
2023-04-16T22:52:16.179Z,10.93
2023-04-16T22:55:17.811Z,10.87
2023-04-16T22:58:19.360Z,10.93
2023-04-16T23:01:21.130Z,10.86
2023-04-16T23:04:22.922Z,10.81
2023-04-16T23:07:24.575Z,10.80
2023-04-16T23:10:26.107Z,10.70
2023-04-16T23:13:27.744Z,10.82
2023-04-16T23:16:29.324Z,10.78
2023-04-16T23:19:31.773Z,10.78
2023-04-16T23:22:33.366Z,10.69
2023-04-16T23:25:34.951Z,10.69
2023-04-16T23:28:36.522Z,10.66
2023-04-16T23:31:38.130Z,10.68
2023-04-16T23:34:39.706Z,10.72
2023-04-16T23:37:41.296Z,10.68
2023-04-16T23:40:42.903Z,10.78
2023-04-16T23:43:44.451Z,10.73
2023-04-16T23:46:46.211Z,10.70
2023-04-16T23:49:47.817Z,10.81
2023-04-16T23:52:49.416Z,10.78
2023-04-16T23:55:51.351Z,10.76
2023-04-16T23:58:52.916Z,10.68
